createdAt,value
2018-04-07T00:02:49.692Z,4.67
2018-04-07T00:07:44.835Z,6.27
2018-04-07T00:12:39.296Z,5.13
2018-04-07T00:17:34.417Z,4.87
2018-04-07T00:22:28.548Z,5.70
2018-04-07T00:27:22.915Z,4.83
2018-04-07T00:32:17.287Z,4.60
2018-04-07T00:37:11.689Z,6.17
2018-04-07T00:42:06.081Z,4.80
2018-04-07T00:47:00.455Z,5.33
2018-04-07T00:51:55.584Z,9.47
2018-04-07T00:56:49.958Z,4.67
2018-04-07T01:01:44.315Z,6.27
2018-04-07T01:06:38.689Z,5.77
2018-04-07T01:11:33.261Z,5.70
2018-04-07T01:16:27.638Z,6.47
2018-04-07T01:21:22.023Z,5.13
2018-04-07T01:26:16.379Z,5.60
2018-04-07T01:31:10.756Z,7.43
2018-04-07T01:36:05.130Z,5.27
2018-04-07T01:40:59.492Z,5.50
2018-04-07T01:45:54.645Z,6.10
2018-04-07T01:50:49.027Z,5.53
2018-04-07T01:55:44.268Z,6.27
2018-04-07T02:00:38.654Z,5.90
2018-04-07T02:05:33.772Z,5.63
2018-04-07T02:10:28.902Z,7.97
2018-04-07T02:15:23.272Z,5.73
2018-04-07T02:20:17.631Z,5.73
2018-04-07T02:25:12.136Z,6.33
2018-04-07T02:30:06.492Z,6.60
2018-04-07T02:35:01.655Z,6.90
2018-04-07T02:39:56.039Z,6.60
2018-04-07T02:44:53.485Z,7.03
2018-04-07T02:49:47.864Z,6.67
2018-04-07T02:54:42.244Z,6.40
2018-04-07T02:59:36.612Z,7.33
2018-04-07T03:04:31.737Z,7.03
2018-04-07T03:09:26.128Z,7.63
2018-04-07T03:14:21.257Z,7.43
2018-04-07T03:19:15.627Z,6.80
2018-04-07T03:24:10.004Z,6.23
2018-04-07T03:29:04.356Z,6.53
2018-04-07T03:33:59.540Z,6.90
2018-04-07T03:38:53.900Z,7.53
2018-04-07T03:43:48.259Z,7.63
2018-04-07T03:48:42.412Z,7.90
2018-04-07T03:53:36.780Z,7.03
2018-04-07T03:58:31.435Z,10.57
2018-04-07T04:03:25.959Z,6.27
2018-04-07T04:08:20.339Z,10.80
2018-04-07T04:13:14.711Z,8.00
2018-04-07T04:18:09.082Z,8.30
2018-04-07T04:23:04.412Z,8.37
2018-04-07T04:27:58.775Z,8.03
2018-04-07T04:32:53.231Z,6.67
2018-04-07T04:37:48.364Z,8.43
2018-04-07T04:42:43.493Z,7.27
2018-04-07T04:47:37.929Z,10.07
2018-04-07T04:52:32.295Z,8.03
2018-04-07T04:57:26.751Z,9.93
2018-04-07T05:02:21.116Z,7.83
2018-04-07T05:07:15.481Z,11.60
2018-04-07T05:12:10.640Z,6.70
2018-04-07T05:17:05.423Z,9.23
2018-04-07T05:22:00.313Z,8.40
2018-04-07T05:26:54.761Z,10.17
2018-04-07T05:31:49.293Z,8.03
2018-04-07T05:36:44.246Z,8.03
2018-04-07T05:41:39.120Z,8.67
2018-04-07T05:46:33.466Z,10.10
2018-04-07T05:51:27.837Z,8.03
2018-04-07T05:56:22.985Z,8.40
2018-04-07T06:01:18.128Z,7.40
2018-04-07T06:06:13.254Z,10.27
2018-04-07T06:11:08.398Z,8.30
2018-04-07T06:16:02.778Z,13.03
2018-04-07T06:20:56.972Z,8.33
2018-04-07T06:25:51.324Z,7.83
2018-04-07T06:30:45.693Z,8.40
2018-04-07T06:35:40.056Z,8.40
2018-04-07T06:40:34.532Z,7.60
2018-04-07T06:45:29.666Z,7.73
2018-04-07T06:50:24.026Z,9.90
2018-04-07T06:55:18.404Z,7.83
2018-04-07T07:00:13.575Z,10.90
2018-04-07T07:05:07.692Z,8.73
2018-04-07T07:10:02.070Z,8.60
2018-04-07T07:14:56.462Z,7.63
2018-04-07T07:19:50.804Z,9.60
2018-04-07T07:24:45.098Z,9.90
2018-04-07T07:29:39.478Z,10.30
2018-04-07T07:34:35.786Z,9.27
2018-04-07T07:39:30.679Z,10.17
2018-04-07T07:44:26.416Z,8.30
2018-04-07T07:49:21.563Z,10.07
2018-04-07T07:54:15.991Z,8.67
2018-04-07T07:59:10.350Z,9.13
2018-04-07T08:04:05.631Z,9.87
2018-04-07T08:09:00.149Z,8.67
2018-04-07T08:13:54.500Z,11.57
2018-04-07T08:18:48.866Z,9.57
2018-04-07T08:23:43.216Z,10.27
2018-04-07T08:28:37.578Z,9.27
2018-04-07T08:33:32.710Z,10.30
2018-04-07T08:38:27.672Z,13.23
2018-04-07T08:43:22.175Z,9.93
2018-04-07T08:48:16.814Z,12.10
2018-04-07T08:53:11.340Z,9.53
2018-04-07T08:58:06.135Z,11.43
2018-04-07T09:03:00.894Z,10.37
2018-04-07T09:07:56.340Z,11.70
2018-04-07T09:12:51.254Z,12.47
2018-04-07T09:17:45.888Z,10.43
2018-04-07T09:22:40.512Z,10.03
2018-04-07T09:27:35.221Z,12.03
2018-04-07T09:32:29.996Z,11.07
2018-04-07T09:37:24.633Z,12.47
2018-04-07T09:42:19.092Z,12.23
2018-04-07T09:47:13.454Z,11.27
2018-04-07T09:52:08.616Z,12.00
2018-04-07T09:57:03.314Z,13.10
2018-04-07T10:01:59.383Z,12.57
2018-04-07T10:06:53.844Z,12.03
2018-04-07T10:11:49.002Z,13.07
2018-04-07T10:16:43.398Z,12.77
2018-04-07T10:21:38.779Z,11.90
2018-04-07T10:26:34.662Z,12.30
2018-04-07T10:31:29.112Z,14.43
2018-04-07T10:36:23.387Z,11.90
2018-04-07T10:41:17.786Z,11.47
2018-04-07T10:46:12.186Z,12.43
2018-04-07T10:51:06.824Z,12.03
2018-04-07T10:56:01.402Z,14.77
2018-04-07T11:00:55.850Z,13.43
2018-04-07T11:05:50.249Z,14.03
2018-04-07T11:10:45.411Z,14.50
2018-04-07T11:15:40.342Z,12.97
2018-04-07T11:20:34.683Z,13.83
2018-04-07T11:25:29.257Z,12.30
2018-04-07T11:30:23.640Z,12.93
2018-04-07T11:35:18.008Z,14.17
2018-04-07T11:40:12.392Z,11.80
2018-04-07T11:45:06.764Z,14.03
2018-04-07T11:50:01.272Z,13.27
2018-04-07T11:54:55.660Z,12.60
2018-04-07T11:59:50.071Z,15.60
2018-04-07T12:04:44.452Z,13.73
2018-04-07T12:09:38.850Z,12.27
2018-04-07T12:14:33.982Z,11.20
2018-04-07T12:19:28.524Z,12.23
2018-04-07T12:24:22.888Z,14.03
2018-04-07T12:29:17.240Z,14.27
2018-04-07T12:34:11.594Z,10.00
2018-04-07T12:39:05.284Z,10.10
2018-04-07T12:43:59.642Z,10.63
2018-04-07T12:48:54.008Z,10.23
2018-04-07T12:53:48.124Z,11.23
2018-04-07T12:58:42.488Z,13.10
2018-04-07T13:03:36.605Z,13.60
2018-04-07T13:08:30.976Z,10.37
2018-04-07T13:13:25.347Z,11.13
2018-04-07T13:18:20.490Z,13.37
2018-04-07T13:23:15.381Z,12.20
2018-04-07T13:28:09.624Z,11.83
2018-04-07T13:33:04.002Z,10.10
2018-04-07T13:37:59.134Z,10.07
2018-04-07T13:42:54.284Z,11.33
2018-04-07T13:47:48.415Z,13.23
2018-04-07T13:52:42.896Z,12.17
2018-04-07T13:57:37.264Z,10.43
2018-04-07T14:02:31.608Z,11.60
2018-04-07T14:07:25.962Z,13.27
2018-04-07T14:12:20.311Z,12.43
2018-04-07T14:17:14.699Z,10.30
2018-04-07T14:22:09.131Z,8.50
2018-04-07T14:27:03.506Z,9.53
2018-04-07T14:31:57.857Z,12.03
2018-04-07T14:36:52.218Z,11.43
2018-04-07T14:41:46.608Z,9.00
2018-04-07T14:46:41.007Z,9.83
2018-04-07T14:51:36.775Z,8.20
2018-04-07T14:56:46.121Z,9.63
2018-04-07T15:01:40.736Z,10.23
2018-04-07T15:06:43.884Z,8.57
2018-04-07T15:11:41.913Z,9.07
2018-04-07T15:16:36.279Z,10.17
2018-04-07T15:21:31.618Z,8.90
2018-04-07T15:26:25.986Z,10.67
2018-04-07T15:31:20.364Z,8.63
2018-04-07T15:36:14.747Z,8.20
2018-04-07T15:41:09.277Z,8.87
2018-04-07T15:46:03.646Z,9.43
2018-04-07T15:50:58.218Z,9.23
2018-04-07T15:56:07.762Z,9.87
2018-04-07T16:01:02.848Z,9.70
2018-04-07T16:05:58.192Z,10.43
2018-04-07T16:10:52.514Z,6.57
2018-04-07T16:15:47.850Z,8.00
2018-04-07T16:20:43.672Z,5.93
2018-04-07T16:25:39.027Z,12.77
2018-04-07T16:30:38.484Z,10.50
2018-04-07T16:35:32.871Z,7.60
2018-04-07T16:40:27.256Z,12.90
2018-04-07T16:45:21.680Z,5.27
2018-04-07T16:50:16.416Z,8.47
2018-04-07T16:55:10.764Z,9.20
2018-04-07T17:00:05.242Z,9.17
2018-04-07T17:04:59.611Z,8.63
2018-04-07T17:09:58.109Z,6.97
2018-04-07T17:14:54.018Z,6.73
2018-04-07T17:20:11.340Z,11.03
2018-04-07T17:25:20.635Z,6.43
2018-04-07T17:30:15.068Z,10.67
2018-04-07T17:35:09.562Z,8.33
2018-04-07T17:40:04.298Z,6.87
2018-04-07T17:45:11.672Z,8.07
2018-04-07T17:50:05.833Z,7.23
2018-04-07T17:55:00.213Z,10.30
2018-04-07T17:59:55.666Z,8.87
2018-04-07T18:05:06.001Z,8.70
2018-04-07T18:15:32.798Z,8.33
2018-04-07T18:20:27.173Z,7.77
2018-04-07T18:25:21.567Z,8.53
2018-04-07T18:30:16.077Z,8.73
2018-04-07T18:35:10.420Z,6.53
2018-04-07T18:40:05.106Z,8.07
2018-04-07T18:44:59.493Z,9.63
2018-04-07T18:49:53.897Z,8.63
2018-04-07T18:54:48.406Z,7.53
2018-04-07T18:59:42.765Z,6.47
2018-04-07T19:04:37.877Z,7.27
2018-04-07T19:09:32.967Z,5.83
2018-04-07T19:14:27.465Z,8.37
2018-04-07T19:19:21.848Z,6.97
2018-04-07T19:24:16.199Z,7.43
2018-04-07T19:29:10.742Z,8.00
2018-04-07T19:34:05.485Z,8.67
2018-04-07T19:49:46.835Z,10.32
2018-04-07T19:54:42.272Z,10.20
2018-04-07T19:59:36.808Z,12.63
2018-04-07T20:04:31.577Z,9.27
2018-04-07T20:09:29.381Z,10.70
2018-04-07T20:14:23.868Z,10.57
2018-04-07T20:19:18.210Z,10.13
2018-04-07T20:24:13.149Z,9.97
2018-04-07T20:29:08.309Z,13.23
2018-04-07T20:34:03.849Z,11.37
2018-04-07T20:38:58.824Z,10.73
2018-04-07T20:43:53.309Z,11.70
2018-04-07T20:48:48.600Z,13.70
2018-04-07T20:53:46.238Z,14.57
2018-04-07T20:58:40.664Z,12.63
2018-04-07T21:03:35.070Z,16.77
2018-04-07T21:08:29.197Z,19.00
2018-04-07T21:13:23.565Z,12.93
2018-04-07T21:18:17.943Z,13.53
2018-04-07T21:23:12.293Z,11.90
2018-04-07T21:28:07.389Z,13.07
2018-04-07T21:33:01.980Z,11.93
2018-04-07T21:37:56.864Z,14.50
2018-04-07T21:42:51.992Z,14.10
2018-04-07T21:47:47.098Z,12.47
2018-04-07T21:52:42.102Z,12.07
2018-04-07T21:57:37.272Z,14.83
2018-04-07T22:02:31.803Z,16.07
2018-04-07T22:07:27.155Z,14.07
2018-04-07T22:12:21.390Z,10.60
2018-04-07T22:17:16.851Z,10.87
2018-04-07T22:22:11.895Z,15.07
2018-04-07T22:27:06.272Z,11.57
2018-04-07T22:32:00.426Z,11.67
2018-04-07T22:36:55.690Z,10.27
2018-04-07T22:41:49.823Z,7.97
2018-04-07T22:46:44.200Z,12.70
2018-04-07T22:51:38.624Z,14.07
2018-04-07T22:56:33.328Z,12.70
2018-04-07T23:01:27.693Z,11.23
2018-04-07T23:06:22.426Z,10.77
2018-04-07T23:11:16.821Z,8.33
2018-04-07T23:16:11.191Z,11.27
2018-04-07T23:21:06.340Z,7.80
2018-04-07T23:26:01.773Z,9.20
2018-04-07T23:30:56.170Z,7.27
2018-04-07T23:35:50.562Z,8.87
2018-04-07T23:40:44.936Z,9.17
2018-04-07T23:45:40.070Z,9.57
2018-04-07T23:50:35.224Z,8.63
2018-04-07T23:55:29.592Z,7.70
